createdAt,value
2023-02-09T00:01:16.694Z,61.45
2023-02-09T00:03:19.314Z,60.99
2023-02-09T00:05:21.910Z,61.55
2023-02-09T00:07:24.597Z,61.89
2023-02-09T00:09:27.163Z,61.92
2023-02-09T00:11:51.504Z,61.66
2023-02-09T00:13:54.018Z,61.88
2023-02-09T00:16:01.477Z,61.56
2023-02-09T00:18:04.157Z,62.11
2023-02-09T00:20:08.271Z,62.16
2023-02-09T00:22:10.831Z,62.00
2023-02-09T00:24:14.045Z,61.54
2023-02-09T00:26:16.704Z,61.28
2023-02-09T00:28:19.685Z,61.25
2023-02-09T00:30:22.549Z,61.34
2023-02-09T00:32:26.487Z,61.01
2023-02-09T00:34:29.040Z,61.07
2023-02-09T00:36:31.942Z,61.07
2023-02-09T00:38:35.344Z,60.79
2023-02-09T00:40:38.217Z,60.88
2023-02-09T00:42:40.759Z,60.56
2023-02-09T00:44:43.277Z,60.65
2023-02-09T00:46:45.870Z,60.60
2023-02-09T00:48:49.741Z,60.80
2023-02-09T00:50:53.073Z,60.47
2023-02-09T00:52:56.060Z,59.92
2023-02-09T00:54:58.599Z,60.31
2023-02-09T00:57:05.228Z,60.30
2023-02-09T00:59:07.876Z,59.88
2023-02-09T01:01:13.307Z,59.46
2023-02-09T01:03:15.887Z,59.41
2023-02-09T01:05:20.023Z,59.98
2023-02-09T01:07:22.650Z,60.66
2023-02-09T01:09:25.909Z,60.65
2023-02-09T01:11:29.832Z,60.43
2023-02-09T01:13:32.405Z,60.84
2023-02-09T01:15:35.057Z,60.62
2023-02-09T01:17:38.468Z,60.17
2023-02-09T01:19:41.051Z,60.24
2023-02-09T01:21:47.728Z,60.41
2023-02-09T01:23:50.797Z,59.73
2023-02-09T01:26:02.345Z,60.52
2023-02-09T01:28:04.967Z,60.53
2023-02-09T01:30:08.478Z,60.31
2023-02-09T01:32:11.154Z,60.91
2023-02-09T01:34:15.915Z,61.08
2023-02-09T01:36:18.570Z,61.25
2023-02-09T01:38:22.484Z,61.36
2023-02-09T01:40:25.263Z,61.21
2023-02-09T01:42:28.016Z,60.83
2023-02-09T01:45:13.498Z,61.26
2023-02-09T01:47:17.304Z,61.02
2023-02-09T01:49:22.537Z,61.11
2023-02-09T01:51:26.534Z,61.05
2023-02-09T01:53:30.529Z,60.79
2023-02-09T01:55:37.934Z,60.87
2023-02-09T01:57:45.284Z,60.74
2023-02-09T01:59:53.001Z,60.71
2023-02-09T02:01:55.754Z,60.72
2023-02-09T02:03:58.301Z,60.71
2023-02-09T02:06:05.949Z,60.66
2023-02-09T02:08:13.279Z,60.80
2023-02-09T02:10:17.552Z,60.92
2023-02-09T02:12:20.554Z,60.69
2023-02-09T02:14:30.867Z,60.46
2023-02-09T02:16:44.791Z,60.85
2023-02-09T02:19:02.709Z,60.68
2023-02-09T02:21:51.247Z,59.63
2023-02-09T02:24:08.523Z,60.19
2023-02-09T02:26:35.530Z,60.93
2023-02-09T02:28:46.033Z,60.78
2023-02-09T02:31:05.482Z,60.87
2023-02-09T02:33:20.946Z,61.38
2023-02-09T02:35:34.420Z,61.21
2023-02-09T02:37:49.733Z,61.61
2023-02-09T02:40:00.179Z,61.78
2023-02-09T02:42:27.886Z,61.71
2023-02-09T02:44:32.942Z,61.67
2023-02-09T02:46:41.993Z,61.97
2023-02-09T02:48:53.849Z,61.24
2023-02-09T02:51:00.954Z,61.60
2023-02-09T02:53:07.589Z,61.64
2023-02-09T02:55:14.946Z,60.83
2023-02-09T02:57:21.508Z,61.00
2023-02-09T02:59:29.244Z,61.13
2023-02-09T03:01:36.101Z,60.78
2023-02-09T03:03:42.011Z,61.05
2023-02-09T03:05:46.643Z,61.30
2023-02-09T03:07:49.376Z,61.08
2023-02-09T03:09:53.518Z,61.50
2023-02-09T03:11:59.742Z,61.45
2023-02-09T03:14:22.225Z,61.87
2023-02-09T03:16:32.974Z,61.73
2023-02-09T03:18:44.677Z,62.09
2023-02-09T03:20:51.884Z,61.95
2023-02-09T03:22:58.296Z,62.04
2023-02-09T03:25:06.270Z,61.88
2023-02-09T03:27:15.550Z,62.03
2023-02-09T03:29:20.839Z,62.33
2023-02-09T03:31:24.159Z,62.87
2023-02-09T03:33:29.486Z,62.87
2023-02-09T03:35:38.019Z,62.73
2023-02-09T03:37:41.960Z,62.22
2023-02-09T03:39:44.563Z,62.08
2023-02-09T03:41:47.173Z,62.09
2023-02-09T03:44:07.347Z,62.14
2023-02-09T03:46:10.406Z,61.80
2023-02-09T03:48:15.861Z,62.01
2023-02-09T03:50:18.817Z,61.90
2023-02-09T03:52:21.433Z,61.89
2023-02-09T03:54:25.324Z,62.04
2023-02-09T03:56:45.587Z,61.85
2023-02-09T03:58:48.173Z,62.34
2023-02-09T04:00:50.786Z,63.30
2023-02-09T04:02:53.419Z,63.01
2023-02-09T04:04:56.101Z,63.03
2023-02-09T04:06:58.855Z,62.94
2023-02-09T04:09:02.748Z,62.74
2023-02-09T04:11:06.667Z,62.66
2023-02-09T04:13:09.259Z,62.24
2023-02-09T04:15:11.899Z,62.27
2023-02-09T04:17:14.498Z,62.19
2023-02-09T04:19:17.751Z,62.45
2023-02-09T04:21:20.379Z,62.62
2023-02-09T04:23:22.915Z,62.06
2023-02-09T04:25:25.496Z,62.29
2023-02-09T04:27:29.457Z,62.35
2023-02-09T04:29:32.206Z,62.06
2023-02-09T04:31:35.962Z,62.34
2023-02-09T04:33:39.048Z,62.09
2023-02-09T04:35:43.874Z,62.43
2023-02-09T04:37:46.478Z,62.42
2023-02-09T04:39:49.033Z,62.65
2023-02-09T04:41:51.557Z,62.98
2023-02-09T04:43:55.435Z,62.86
2023-02-09T04:45:58.252Z,63.05
2023-02-09T04:48:00.853Z,62.97
2023-02-09T04:50:03.430Z,63.12
2023-02-09T04:52:05.980Z,62.75
2023-02-09T04:54:08.511Z,63.30
2023-02-09T04:56:15.365Z,63.07
2023-02-09T04:58:38.439Z,63.05
2023-02-09T05:00:42.396Z,62.74
2023-02-09T05:02:44.983Z,63.14
2023-02-09T05:04:47.624Z,63.07
2023-02-09T05:06:50.343Z,62.97
2023-02-09T05:08:52.961Z,63.24
2023-02-09T05:10:56.307Z,63.37
2023-02-09T05:12:58.937Z,63.17
2023-02-09T05:15:01.575Z,63.18
2023-02-09T05:17:05.596Z,63.21
2023-02-09T05:19:08.166Z,62.95
2023-02-09T05:21:11.051Z,63.14
2023-02-09T05:23:14.603Z,62.94
2023-02-09T05:25:17.299Z,62.67
2023-02-09T05:27:20.155Z,62.61
2023-02-09T05:29:22.770Z,62.14
2023-02-09T05:31:25.656Z,62.74
2023-02-09T05:33:29.841Z,62.49
2023-02-09T05:35:32.417Z,62.25
2023-02-09T05:37:35.209Z,62.35
2023-02-09T05:39:37.811Z,62.75
2023-02-09T05:41:54.546Z,62.67
2023-02-09T05:43:57.184Z,62.46
2023-02-09T05:45:59.793Z,62.48
2023-02-09T05:48:02.415Z,62.23
2023-02-09T05:50:06.987Z,62.30
2023-02-09T05:52:10.446Z,61.80
2023-02-09T05:54:13.044Z,62.19
2023-02-09T05:56:15.591Z,62.08
2023-02-09T05:58:18.149Z,62.09
2023-02-09T06:00:21.955Z,62.63
2023-02-09T06:02:24.606Z,63.45
2023-02-09T06:04:28.346Z,63.63
2023-02-09T06:06:33.477Z,63.69
2023-02-09T06:08:36.043Z,63.61
2023-02-09T06:10:38.644Z,63.47
2023-02-09T06:12:41.466Z,63.00
2023-02-09T06:14:44.042Z,63.03
2023-02-09T06:16:47.137Z,63.68
2023-02-09T06:18:49.758Z,63.76
2023-02-09T06:20:53.875Z,63.94
2023-02-09T06:22:57.991Z,63.74
2023-02-09T06:25:00.659Z,63.68
2023-02-09T06:27:03.201Z,63.86
2023-02-09T06:29:05.903Z,63.19
2023-02-09T06:31:09.614Z,63.19
2023-02-09T06:33:12.214Z,63.16
2023-02-09T06:35:14.839Z,63.37
2023-02-09T06:37:17.421Z,63.15
2023-02-09T06:39:21.322Z,63.29
2023-02-09T06:41:23.916Z,63.35
2023-02-09T06:43:26.523Z,62.88
2023-02-09T06:45:29.170Z,62.55
2023-02-09T06:47:31.807Z,63.12
2023-02-09T06:49:34.388Z,62.39
2023-02-09T06:51:37.176Z,62.05
2023-02-09T06:53:41.089Z,62.01
2023-02-09T06:55:45.094Z,62.14
2023-02-09T06:57:47.689Z,61.85
2023-02-09T06:59:50.329Z,62.35
2023-02-09T07:01:54.976Z,62.80
2023-02-09T07:03:57.771Z,63.17
2023-02-09T07:06:05.075Z,62.84
2023-02-09T07:08:07.740Z,63.07
2023-02-09T07:10:11.541Z,62.56
2023-02-09T07:12:15.464Z,62.91
2023-02-09T07:14:18.062Z,62.28
2023-02-09T07:16:20.738Z,62.53
2023-02-09T07:18:23.448Z,62.86
2023-02-09T07:20:26.140Z,62.93
2023-02-09T07:22:28.788Z,63.42
2023-02-09T07:24:31.430Z,63.37
2023-02-09T07:26:34.092Z,63.22
2023-02-09T07:28:38.432Z,63.22
2023-02-09T07:30:42.069Z,63.44
2023-02-09T07:32:44.633Z,62.95
2023-02-09T07:34:47.209Z,63.31
2023-02-09T07:36:49.910Z,63.40
2023-02-09T07:38:52.693Z,63.81
2023-02-09T07:40:55.555Z,63.61
2023-02-09T07:42:58.107Z,63.72
2023-02-09T07:45:02.021Z,63.84
2023-02-09T07:47:04.672Z,63.61
2023-02-09T07:49:07.254Z,64.07
2023-02-09T07:51:14.212Z,64.44
2023-02-09T07:53:20.052Z,64.96
2023-02-09T07:55:22.750Z,65.21
2023-02-09T07:57:25.319Z,65.54
2023-02-09T07:59:27.954Z,65.82
2023-02-09T08:01:31.954Z,65.35
2023-02-09T08:03:36.502Z,65.30
2023-02-09T08:05:44.697Z,65.68
2023-02-09T08:07:47.535Z,65.23
2023-02-09T08:09:52.911Z,64.98
2023-02-09T08:11:58.932Z,65.47
2023-02-09T08:14:05.868Z,65.86
2023-02-09T08:16:11.304Z,65.42
2023-02-09T08:18:19.162Z,65.51
2023-02-09T08:20:28.602Z,65.50
2023-02-09T08:22:35.076Z,65.47
2023-02-09T08:24:37.948Z,65.01
2023-02-09T08:26:41.026Z,65.20
2023-02-09T08:28:45.381Z,65.16
2023-02-09T08:30:50.282Z,65.39
2023-02-09T08:32:52.878Z,65.85
2023-02-09T08:34:56.758Z,65.52
2023-02-09T08:36:59.377Z,65.60
2023-02-09T08:39:03.148Z,64.95
2023-02-09T08:41:07.092Z,65.44
2023-02-09T08:43:09.659Z,65.73
2023-02-09T08:45:12.247Z,65.77
2023-02-09T08:47:14.794Z,65.93
2023-02-09T08:49:17.346Z,65.76
2023-02-09T08:51:21.522Z,66.11
2023-02-09T08:53:24.140Z,65.95
2023-02-09T08:55:26.720Z,65.75
2023-02-09T08:57:42.705Z,65.87
2023-02-09T08:59:46.316Z,65.76
2023-02-09T09:01:49.047Z,65.28
2023-02-09T09:03:54.115Z,65.09
2023-02-09T09:05:57.978Z,65.09
2023-02-09T09:08:01.966Z,64.90
2023-02-09T09:10:04.845Z,64.69
2023-02-09T09:12:07.442Z,64.88
2023-02-09T09:14:10.047Z,64.90
2023-02-09T09:16:15.541Z,64.97
2023-02-09T09:18:18.221Z,64.96
2023-02-09T09:20:20.864Z,64.84
2023-02-09T09:22:23.909Z,64.84
2023-02-09T09:24:29.004Z,65.47
2023-02-09T09:26:31.607Z,65.25
2023-02-09T09:28:34.216Z,65.04
2023-02-09T09:30:37.461Z,65.04
2023-02-09T09:32:40.078Z,65.30
2023-02-09T09:34:44.217Z,65.41
2023-02-09T09:36:46.785Z,65.35
2023-02-09T09:38:49.426Z,64.99
2023-02-09T09:40:53.772Z,65.44
2023-02-09T09:42:59.220Z,65.25
2023-02-09T09:45:02.581Z,64.93
2023-02-09T09:47:11.383Z,65.18
2023-02-09T09:49:24.803Z,64.67
2023-02-09T09:51:37.729Z,64.73
2023-02-09T09:53:43.275Z,64.63
2023-02-09T09:55:47.408Z,64.54
2023-02-09T09:57:53.781Z,63.92
2023-02-09T09:59:57.842Z,64.09
2023-02-09T10:02:04.316Z,64.05
2023-02-09T10:04:13.753Z,63.61
2023-02-09T10:06:18.747Z,63.91
2023-02-09T10:08:28.706Z,63.24
2023-02-09T10:10:41.987Z,63.27
2023-02-09T10:12:49.500Z,63.58
2023-02-09T10:14:53.440Z,64.29
2023-02-09T10:16:56.257Z,63.76
2023-02-09T10:19:01.001Z,63.21
2023-02-09T10:21:07.597Z,63.50
2023-02-09T10:23:17.364Z,63.88
2023-02-09T10:25:40.293Z,63.78
2023-02-09T10:27:47.209Z,63.85
2023-02-09T10:29:49.756Z,63.64
2023-02-09T10:32:00.736Z,63.72
2023-02-09T10:34:11.508Z,63.20
2023-02-09T10:36:25.823Z,63.16
2023-02-09T10:38:33.572Z,63.47
2023-02-09T10:40:41.417Z,63.46
2023-02-09T10:42:54.986Z,63.50
2023-02-09T10:45:04.779Z,63.30
2023-02-09T10:47:27.150Z,63.11
2023-02-09T10:49:32.261Z,63.19
2023-02-09T10:51:35.044Z,62.71
2023-02-09T10:53:40.360Z,62.89
2023-02-09T10:55:43.358Z,62.79
2023-02-09T10:57:46.063Z,62.52
2023-02-09T10:59:52.669Z,62.68
2023-02-09T11:01:58.336Z,63.05
2023-02-09T11:04:04.463Z,63.39
2023-02-09T11:06:15.142Z,63.22
2023-02-09T11:08:20.480Z,62.62
2023-02-09T11:10:23.386Z,62.71
2023-02-09T11:12:28.493Z,62.92
2023-02-09T11:14:31.210Z,62.94
2023-02-09T11:17:04.165Z,63.05
2023-02-09T11:19:22.332Z,62.85
2023-02-09T11:21:36.540Z,62.98
2023-02-09T11:23:46.279Z,62.94
2023-02-09T11:25:58.188Z,62.65
2023-02-09T11:28:19.543Z,63.01
2023-02-09T11:30:42.876Z,62.36
2023-02-09T11:32:52.390Z,62.32
2023-02-09T11:35:05.005Z,62.46
2023-02-09T11:37:22.564Z,61.51
2023-02-09T11:39:38.349Z,61.78
2023-02-09T11:42:04.281Z,61.56
2023-02-09T11:44:08.580Z,61.31
2023-02-09T11:46:15.706Z,61.64
2023-02-09T11:48:25.834Z,62.05
2023-02-09T11:50:36.627Z,62.08
2023-02-09T11:52:49.156Z,61.98
2023-02-09T11:54:57.620Z,62.20
2023-02-09T11:57:03.900Z,61.13
2023-02-09T11:59:11.564Z,61.81
2023-02-09T12:01:29.006Z,61.48
2023-02-09T12:03:31.580Z,61.36
2023-02-09T12:05:35.731Z,61.10
2023-02-09T12:07:44.644Z,61.88
2023-02-09T12:09:55.779Z,61.57
2023-02-09T12:12:11.546Z,61.39
2023-02-09T12:14:46.301Z,61.64
2023-02-09T12:16:58.059Z,61.79
2023-02-09T12:19:00.582Z,61.87
2023-02-09T12:21:06.640Z,61.68
2023-02-09T12:23:19.642Z,60.55
2023-02-09T12:25:50.892Z,59.43
2023-02-09T12:28:14.202Z,59.86
2023-02-09T12:30:59.241Z,59.25
2023-02-09T12:33:17.387Z,59.83
2023-02-09T12:35:29.300Z,59.15
2023-02-09T12:37:33.264Z,58.77
2023-02-09T12:39:35.867Z,58.25
2023-02-09T12:42:26.961Z,58.79
2023-02-09T12:44:40.459Z,58.92
2023-02-09T12:46:53.431Z,58.17
2023-02-09T12:49:21.486Z,54.84
2023-02-09T12:51:56.029Z,55.62
2023-02-09T12:53:59.915Z,55.52
2023-02-09T12:56:23.143Z,54.65
2023-02-09T12:58:36.823Z,55.09
2023-02-09T13:00:52.680Z,55.39
2023-02-09T13:02:57.552Z,54.49
2023-02-09T13:05:05.231Z,54.79
2023-02-09T13:07:19.168Z,54.15
2023-02-09T13:09:29.003Z,54.08
2023-02-09T13:11:44.131Z,54.22
2023-02-09T13:13:50.597Z,54.96
2023-02-09T13:16:09.697Z,54.52
2023-02-09T13:18:21.205Z,54.66
2023-02-09T13:20:42.820Z,53.51
2023-02-09T13:22:58.156Z,51.92
2023-02-09T13:25:14.117Z,52.27
2023-02-09T13:27:22.800Z,52.08
2023-02-09T13:29:27.310Z,51.20
2023-02-09T13:31:36.893Z,50.74
2023-02-09T13:33:50.208Z,49.61
2023-02-09T13:36:07.153Z,50.20
2023-02-09T13:38:17.172Z,50.94
2023-02-09T13:40:25.168Z,50.66
2023-02-09T13:42:30.441Z,51.30
2023-02-09T13:44:34.862Z,51.74
2023-02-09T13:46:39.388Z,51.61
2023-02-09T13:48:41.996Z,51.21
2023-02-09T13:50:48.587Z,51.81
2023-02-09T13:52:51.823Z,51.69
2023-02-09T13:54:54.912Z,51.56
2023-02-09T13:57:01.676Z,51.91
2023-02-09T13:59:04.917Z,51.77
2023-02-09T14:01:10.117Z,50.75
2023-02-09T14:03:17.528Z,50.41
2023-02-09T14:05:29.730Z,50.31
2023-02-09T14:07:36.522Z,50.87
2023-02-09T14:09:44.376Z,50.96
2023-02-09T14:11:52.958Z,51.07
2023-02-09T14:14:02.294Z,50.60
2023-02-09T14:16:06.808Z,50.13
2023-02-09T14:18:31.503Z,50.01
2023-02-09T14:20:34.128Z,50.13
2023-02-09T14:22:38.667Z,48.83
2023-02-09T14:24:43.807Z,49.46
2023-02-09T14:26:50.064Z,49.50
2023-02-09T14:29:04.491Z,49.45
2023-02-09T14:31:19.714Z,48.97
2023-02-09T14:33:25.204Z,48.71
2023-02-09T14:35:30.229Z,48.70
2023-02-09T14:37:32.777Z,49.01
2023-02-09T14:39:35.333Z,48.75
2023-02-09T14:41:38.058Z,48.83
2023-02-09T14:43:40.636Z,48.60
2023-02-09T14:45:46.064Z,48.55
2023-02-09T14:47:50.125Z,48.19
2023-02-09T14:49:52.679Z,48.27
2023-02-09T14:52:06.185Z,48.39
2023-02-09T14:54:19.762Z,48.80
2023-02-09T14:56:28.459Z,48.47
2023-02-09T14:58:33.478Z,48.66
2023-02-09T15:00:36.047Z,48.79
2023-02-09T15:02:38.783Z,48.56
2023-02-09T15:04:42.715Z,48.31
2023-02-09T15:06:48.039Z,48.03
2023-02-09T15:08:50.598Z,48.32
2023-02-09T15:10:56.020Z,48.66
2023-02-09T15:12:59.502Z,48.87
2023-02-09T15:15:02.802Z,48.83
2023-02-09T15:17:13.226Z,48.29
2023-02-09T15:19:20.108Z,48.37
2023-02-09T15:21:23.996Z,48.90
2023-02-09T15:23:26.651Z,49.11
2023-02-09T15:25:30.203Z,49.74
2023-02-09T15:27:35.426Z,50.09
2023-02-09T15:29:37.985Z,50.49
2023-02-09T15:31:41.828Z,50.33
2023-02-09T15:33:45.056Z,50.75
2023-02-09T15:35:48.370Z,51.04
2023-02-09T15:37:54.544Z,50.80
2023-02-09T15:40:00.526Z,51.49
2023-02-09T15:42:20.574Z,51.26
2023-02-09T15:44:40.648Z,52.14
2023-02-09T15:47:02.681Z,52.39
2023-02-09T15:49:07.505Z,52.15
2023-02-09T15:51:10.781Z,52.17
2023-02-09T15:53:18.690Z,52.38
2023-02-09T15:55:23.085Z,52.21
2023-02-09T15:57:26.264Z,52.53
2023-02-09T15:59:29.098Z,52.24
2023-02-09T16:01:33.805Z,52.55
2023-02-09T16:03:36.521Z,52.57
2023-02-09T16:05:39.086Z,52.07
2023-02-09T16:07:41.770Z,52.75
2023-02-09T16:09:45.719Z,52.59
2023-02-09T16:11:48.442Z,53.08
2023-02-09T16:13:51.881Z,52.54
2023-02-09T16:15:58.274Z,53.07
2023-02-09T16:18:05.283Z,53.28
2023-02-09T16:20:11.570Z,53.08
2023-02-09T16:22:14.471Z,53.73
2023-02-09T16:24:22.526Z,53.62
2023-02-09T16:26:28.390Z,53.10
2023-02-09T16:28:31.117Z,53.74
2023-02-09T16:30:37.625Z,53.16
2023-02-09T16:32:40.196Z,53.70
2023-02-09T16:34:42.762Z,53.49
2023-02-09T16:36:47.689Z,53.93
2023-02-09T16:38:51.525Z,53.80
2023-02-09T16:40:56.034Z,53.47
2023-02-09T16:43:02.058Z,53.56
2023-02-09T16:45:05.809Z,54.17
2023-02-09T16:47:15.175Z,53.45
2023-02-09T16:49:31.879Z,53.47
2023-02-09T16:51:35.150Z,53.12
2023-02-09T16:53:40.665Z,53.61
2023-02-09T16:55:43.482Z,53.81
2023-02-09T16:57:46.142Z,53.84
2023-02-09T16:59:50.037Z,53.29
2023-02-09T17:01:52.669Z,53.27
2023-02-09T17:03:57.125Z,53.63
2023-02-09T17:06:01.442Z,53.97
2023-02-09T17:08:07.785Z,53.93
2023-02-09T17:10:21.121Z,54.12
2023-02-09T17:12:24.144Z,54.18
2023-02-09T17:14:26.750Z,54.29
2023-02-09T17:16:33.765Z,54.09
2023-02-09T17:18:41.375Z,54.32
2023-02-09T17:20:47.070Z,54.97
2023-02-09T17:22:51.707Z,54.87
2023-02-09T17:24:54.350Z,54.68
2023-02-09T17:26:56.903Z,54.73
2023-02-09T17:28:59.554Z,54.40
2023-02-09T17:31:04.452Z,54.90
2023-02-09T17:33:16.285Z,54.74
2023-02-09T17:35:38.247Z,54.78
2023-02-09T17:37:44.039Z,55.05
2023-02-09T17:39:46.638Z,54.66
2023-02-09T17:41:50.001Z,55.17
2023-02-09T17:43:53.722Z,55.31
2023-02-09T17:45:56.679Z,55.30
2023-02-09T17:47:59.455Z,55.75
2023-02-09T17:50:03.361Z,55.22
2023-02-09T17:52:06.386Z,55.21
2023-02-09T17:54:14.038Z,56.04
2023-02-09T17:56:16.993Z,56.01
2023-02-09T17:58:20.185Z,55.91
2023-02-09T18:00:23.095Z,56.56
2023-02-09T18:02:25.726Z,56.49
2023-02-09T18:04:28.710Z,57.21
2023-02-09T18:06:36.070Z,56.71
2023-02-09T18:08:38.616Z,57.06
2023-02-09T18:10:41.189Z,56.60
2023-02-09T18:12:44.142Z,56.56
2023-02-09T18:14:46.741Z,56.70
2023-02-09T18:16:49.891Z,57.37
2023-02-09T18:18:52.462Z,56.58
2023-02-09T18:20:55.250Z,56.95
2023-02-09T18:22:59.138Z,56.93
2023-02-09T18:25:01.697Z,58.02
2023-02-09T18:27:04.675Z,57.63
2023-02-09T18:29:07.238Z,58.09
2023-02-09T18:31:15.276Z,57.94
2023-02-09T18:33:20.902Z,57.65
2023-02-09T18:35:25.701Z,57.86
2023-02-09T18:37:28.246Z,58.26
2023-02-09T18:39:34.480Z,58.56
2023-02-09T18:41:37.216Z,58.05
2023-02-09T18:43:40.204Z,57.97
2023-02-09T18:45:42.817Z,57.79
2023-02-09T18:47:46.498Z,58.35
2023-02-09T18:49:49.074Z,57.87
2023-02-09T18:51:52.107Z,57.96
2023-02-09T18:53:54.697Z,58.69
2023-02-09T18:55:58.621Z,58.49
2023-02-09T18:58:04.593Z,59.23
2023-02-09T19:00:08.915Z,59.29
2023-02-09T19:02:12.400Z,59.99
2023-02-09T19:04:14.993Z,60.48
2023-02-09T19:06:17.605Z,60.25
2023-02-09T19:08:20.190Z,60.84
2023-02-09T19:10:23.914Z,60.33
2023-02-09T19:12:28.417Z,60.92
2023-02-09T19:14:39.882Z,60.62
2023-02-09T19:16:42.832Z,61.17
2023-02-09T19:18:46.356Z,61.11
2023-02-09T19:20:49.016Z,59.99
2023-02-09T19:22:52.286Z,60.85
2023-02-09T19:24:56.731Z,60.64
2023-02-09T19:26:59.326Z,60.99
2023-02-09T19:29:03.231Z,60.14
2023-02-09T19:31:11.672Z,60.96
2023-02-09T19:33:14.397Z,60.18
2023-02-09T19:35:17.960Z,60.25
2023-02-09T19:37:21.796Z,60.49
2023-02-09T19:39:25.458Z,60.61
2023-02-09T19:41:28.243Z,60.86
2023-02-09T19:43:30.811Z,60.80
2023-02-09T19:45:37.465Z,60.05
2023-02-09T19:47:40.333Z,60.13
2023-02-09T19:49:42.932Z,59.70
2023-02-09T19:51:45.558Z,60.49
2023-02-09T19:53:48.191Z,60.11
2023-02-09T19:55:51.318Z,60.22
2023-02-09T19:57:53.890Z,60.53
2023-02-09T19:59:56.597Z,59.95
2023-02-09T20:02:00.545Z,59.94
2023-02-09T20:04:03.127Z,60.44
2023-02-09T20:06:08.575Z,60.40
2023-02-09T20:08:14.336Z,60.27
2023-02-09T20:10:16.929Z,59.69
2023-02-09T20:12:21.510Z,60.28
2023-02-09T20:14:24.664Z,60.09
2023-02-09T20:16:28.339Z,60.60
2023-02-09T20:18:32.301Z,60.30
2023-02-09T20:20:34.894Z,60.23
2023-02-09T20:22:37.640Z,60.18
2023-02-09T20:24:40.375Z,60.10
2023-02-09T20:26:44.327Z,60.10
2023-02-09T20:28:46.867Z,60.29
2023-02-09T20:30:49.588Z,60.05
2023-02-09T20:32:52.212Z,60.43
2023-02-09T20:34:56.180Z,60.43
2023-02-09T20:36:58.846Z,61.20
2023-02-09T20:39:01.407Z,61.69
2023-02-09T20:41:04.067Z,61.57
2023-02-09T20:43:24.360Z,60.99
2023-02-09T20:45:44.591Z,61.11
2023-02-09T20:47:47.244Z,61.53
2023-02-09T20:49:50.044Z,61.37
2023-02-09T20:51:54.004Z,61.06
2023-02-09T20:53:56.590Z,61.25
2023-02-09T20:55:59.369Z,61.50
2023-02-09T20:58:01.906Z,61.33
2023-02-09T21:00:09.075Z,61.16
2023-02-09T21:02:12.983Z,61.01
2023-02-09T21:04:15.584Z,61.22
2023-02-09T21:06:18.476Z,61.43
2023-02-09T21:08:22.908Z,61.44
2023-02-09T21:10:25.842Z,61.04
2023-02-09T21:12:28.423Z,61.70
2023-02-09T21:14:41.837Z,61.77
2023-02-09T21:16:45.511Z,61.85
2023-02-09T21:18:48.109Z,61.85
2023-02-09T21:20:50.856Z,61.12
2023-02-09T21:22:53.590Z,61.12
2023-02-09T21:24:57.488Z,61.59
2023-02-09T21:27:00.629Z,60.95
2023-02-09T21:29:03.172Z,61.16
2023-02-09T21:31:10.774Z,61.15
2023-02-09T21:33:13.286Z,61.09
2023-02-09T21:35:16.619Z,60.74
2023-02-09T21:37:19.723Z,60.91
2023-02-09T21:39:22.526Z,60.85
2023-02-09T21:41:45.160Z,60.32
2023-02-09T21:43:48.259Z,61.37
2023-02-09T21:45:50.877Z,60.81
2023-02-09T21:47:53.522Z,61.26
2023-02-09T21:49:56.367Z,61.24
2023-02-09T21:51:58.963Z,61.65
2023-02-09T21:54:01.660Z,61.13
2023-02-09T21:56:07.234Z,61.53
2023-02-09T21:58:11.108Z,61.39
2023-02-09T22:00:15.025Z,61.08
2023-02-09T22:02:19.352Z,61.41
2023-02-09T22:04:22.108Z,60.75
2023-02-09T22:06:25.292Z,60.95
2023-02-09T22:08:28.944Z,60.95
2023-02-09T22:10:31.489Z,61.13
2023-02-09T22:12:36.324Z,61.36
2023-02-09T22:14:40.262Z,60.96
2023-02-09T22:16:43.053Z,61.00
2023-02-09T22:18:45.634Z,60.73
2023-02-09T22:20:48.540Z,60.73
2023-02-09T22:22:51.227Z,60.77
2023-02-09T22:24:53.760Z,60.98
2023-02-09T22:26:56.311Z,61.29
2023-02-09T22:28:58.964Z,62.04
2023-02-09T22:31:07.576Z,61.70
2023-02-09T22:33:10.202Z,61.74
2023-02-09T22:35:12.730Z,61.97
2023-02-09T22:37:15.285Z,62.17
2023-02-09T22:39:17.821Z,62.02
2023-02-09T22:41:24.873Z,61.69
2023-02-09T22:43:27.834Z,61.98
2023-02-09T22:45:30.410Z,62.16
2023-02-09T22:47:35.028Z,61.84
2023-02-09T22:49:37.587Z,62.34
2023-02-09T22:51:40.214Z,61.67
2023-02-09T22:53:42.795Z,61.72
2023-02-09T22:55:48.269Z,62.10
2023-02-09T22:57:51.059Z,62.03
2023-02-09T22:59:53.665Z,62.41
2023-02-09T23:01:56.269Z,62.28
2023-02-09T23:04:00.330Z,61.90
2023-02-09T23:06:03.183Z,62.62
2023-02-09T23:08:06.198Z,62.20
2023-02-09T23:10:08.980Z,62.17
2023-02-09T23:12:11.551Z,62.58
2023-02-09T23:14:14.167Z,62.84
2023-02-09T23:16:19.322Z,62.84
2023-02-09T23:18:21.914Z,62.58
2023-02-09T23:20:25.808Z,62.97
2023-02-09T23:22:28.370Z,62.70
2023-02-09T23:24:30.886Z,62.66
2023-02-09T23:26:33.834Z,62.78
2023-02-09T23:28:36.479Z,62.50
2023-02-09T23:30:41.680Z,62.48
2023-02-09T23:32:44.219Z,62.46
2023-02-09T23:34:46.746Z,62.68
2023-02-09T23:36:50.900Z,62.51
2023-02-09T23:38:54.642Z,62.62
2023-02-09T23:40:57.171Z,62.49
2023-02-09T23:42:59.733Z,62.27
2023-02-09T23:45:02.276Z,62.29
2023-02-09T23:47:05.379Z,61.58
2023-02-09T23:49:07.939Z,61.88
2023-02-09T23:51:14.052Z,61.35
2023-02-09T23:53:17.946Z,62.01
2023-02-09T23:55:20.549Z,61.85
2023-02-09T23:57:23.566Z,61.61
2023-02-09T23:59:26.111Z,61.71
